Time;durP1;ratioP1;P1;durP2;ratioP2;P2;SDS_P1;SDS_P2;PMS_P1;PMS_P2;Temp;Humidity;BMP_temperature;BMP_pressure;BME280_temperature;BME280_humidity;BME280_pressure;Samples;Min_cycle;Max_cycle;Signal;HPM_P1;HPM_P2
2022/09/26 00:01:58;;;;;;;9.87;7.80;;;11.20;99.90;;;;;;5053928;28;20199;-76
2022/09/26 00:04:26;;;;;;;19.67;10.00;;;11.20;99.90;;;;;;5051731;28;20258;-75
2022/09/26 00:06:54;;;;;;;14.87;10.37;;;11.20;99.90;;;;;;5053071;28;20215;-76
2022/09/26 00:09:21;;;;;;;13.90;10.60;;;11.20;99.90;;;;;;5052943;28;20427;-75
2022/09/26 00:11:47;;;;;;;15.80;11.13;;;11.20;99.90;;;;;;5052901;28;20466;-75
2022/09/26 00:14:20;;;;;;;21.83;11.73;;;11.00;99.90;;;;;;5052175;28;20475;-75
2022/09/26 00:16:46;;;;;;;23.27;13.43;;;11.00;99.90;;;;;;5050548;28;20891;-75
2022/09/26 00:19:12;;;;;;;19.27;12.40;;;10.90;99.90;;;;;;5051964;28;20455;-75
2022/09/26 00:21:37;;;;;;;15.90;12.60;;;10.90;99.90;;;;;;5051699;28;20911;-75
2022/09/26 00:24:03;;;;;;;17.20;11.60;;;10.90;99.90;;;;;;5051336;28;20448;-76
2022/09/26 00:26:31;;;;;;;17.17;11.80;;;10.90;99.90;;;;;;5050187;28;20187;-74
2022/09/26 00:28:57;;;;;;;17.60;12.40;;;10.90;99.90;;;;;;5051628;28;20437;-75
2022/09/26 00:31:29;;;;;;;16.73;11.80;;;10.90;99.90;;;;;;5051260;28;20456;-75
2022/09/26 00:33:55;;;;;;;17.30;10.47;;;10.90;99.90;;;;;;5051280;28;20473;-75
2022/09/26 00:36:22;;;;;;;14.90;11.00;;;10.80;99.90;;;;;;5051040;28;20427;-76
2022/09/26 00:38:47;;;;;;;18.30;12.50;;;10.80;99.90;;;;;;5051195;28;20443;-76
2022/09/26 00:41:15;;;;;;;24.73;14.60;;;10.80;99.90;;;;;;5051246;28;20929;-76
2022/09/26 00:43:43;;;;;;;22.50;16.33;;;10.80;99.90;;;;;;5051020;28;20550;-76
2022/09/26 00:46:35;;;;;;;18.37;13.40;;;10.70;99.90;;;;;;5051542;28;20422;-76
2022/09/26 00:49:24;;;;;;;24.07;14.93;;;10.70;99.90;;;;;;5051131;28;20429;-76
2022/09/26 00:51:57;;;;;;;25.37;13.57;;;10.70;99.90;;;;;;5051068;28;20417;-75
2022/09/26 00:54:24;;;;;;;18.67;11.63;;;10.70;99.90;;;;;;5050083;28;20487;-76
2022/09/26 00:56:53;;;;;;;19.80;11.40;;;10.60;99.90;;;;;;5052360;28;21037;-76
2022/09/26 00:59:35;;;;;;;20.47;12.50;;;10.60;99.90;;;;;;5051601;28;20423;-76
2022/09/26 01:02:03;;;;;;;19.93;10.60;;;10.60;99.90;;;;;;5050764;28;20419;-76
2022/09/26 01:04:31;;;;;;;20.23;11.03;;;10.60;99.90;;;;;;5050579;28;20439;-76
2022/09/26 01:06:59;;;;;;;17.67;11.37;;;10.70;99.90;;;;;;5050597;28;20414;-76
2022/09/26 01:09:26;;;;;;;20.10;11.70;;;10.60;99.90;;;;;;5050890;28;20438;-76
2022/09/26 01:11:53;;;;;;;18.43;11.30;;;10.50;99.90;;;;;;5050684;28;20425;-76
2022/09/26 01:14:20;;;;;;;18.37;10.87;;;10.30;99.90;;;;;;5050929;28;20500;-75
2022/09/26 01:16:49;;;;;;;20.23;11.73;;;10.30;99.90;;;;;;5049030;28;20941;-76
2022/09/26 01:20:00;;;;;;;14.60;10.90;;;10.30;99.90;;;;;;5049050;28;20971;-76
2022/09/26 01:22:44;;;;;;;17.00;10.53;;;10.30;99.90;;;;;;5050469;28;20420;-76
2022/09/26 01:25:39;;;;;;;18.73;10.40;;;10.10;99.90;;;;;;5050725;28;20458;-75
2022/09/26 01:28:10;;;;;;;17.60;10.23;;;10.00;99.90;;;;;;5050636;28;20419;-75
2022/09/26 01:31:17;;;;;;;26.63;14.67;;;10.00;99.90;;;;;;5050267;28;20419;-76
2022/09/26 01:33:59;;;;;;;27.80;14.53;;;10.00;99.90;;;;;;5050228;28;20849;-76
2022/09/26 01:36:33;;;;;;;22.10;13.30;;;10.10;99.90;;;;;;5050288;28;20421;-76
2022/09/26 01:39:08;;;;;;;30.53;13.50;;;10.10;99.90;;;;;;5050340;28;20563;-76
2022/09/26 01:41:54;;;;;;;33.53;17.40;;;10.20;99.90;;;;;;5050332;28;20427;-76
2022/09/26 01:44:37;;;;;;;22.10;13.40;;;10.20;99.90;;;;;;5050095;28;20439;-76
2022/09/26 01:47:24;;;;;;;25.80;13.10;;;10.30;99.90;;;;;;5050289;28;20419;-76
2022/09/26 01:50:00;;;;;;;25.90;14.07;;;10.30;99.90;;;;;;5050150;28;20419;-75
2022/09/26 01:52:31;;;;;;;16.27;9.67;;;10.30;99.90;;;;;;5050115;28;20421;-76
2022/09/26 01:55:05;;;;;;;16.87;10.20;;;10.30;99.90;;;;;;5049855;28;20545;-76
2022/09/26 01:57:39;;;;;;;16.30;11.00;;;10.20;99.90;;;;;;5049798;28;20546;-76
2022/09/26 02:00:07;;;;;;;15.37;9.80;;;10.30;99.90;;;;;;5048626;28;20462;-76
2022/09/26 02:02:42;;;;;;;19.60;10.30;;;10.30;99.90;;;;;;5049874;28;20454;-76
2022/09/26 02:05:37;;;;;;;13.73;9.30;;;10.30;99.90;;;;;;5047143;28;20469;-76
2022/09/26 02:08:11;;;;;;;12.33;8.40;;;10.30;99.90;;;;;;5046704;28;20435;-76
2022/09/26 02:10:43;;;;;;;13.40;9.50;;;10.30;99.90;;;;;;5049889;28;20779;-76
2022/09/26 02:13:15;;;;;;;12.87;9.20;;;10.40;99.90;;;;;;5049757;28;20490;-76
2022/09/26 02:15:46;;;;;;;16.70;10.37;;;10.40;99.90;;;;;;5048509;28;20516;-76
2022/09/26 02:18:26;;;;;;;15.27;8.80;;;10.40;99.90;;;;;;5049909;28;20454;-76
2022/09/26 02:21:00;;;;;;;17.07;10.20;;;10.40;99.90;;;;;;5049791;28;20424;-76
2022/09/26 02:23:26;;;;;;;14.83;8.50;;;10.30;99.90;;;;;;5048550;28;20488;-76
2022/09/26 02:25:52;;;;;;;17.50;9.30;;;10.30;99.90;;;;;;5050156;28;20454;-76
2022/09/26 02:28:19;;;;;;;18.13;9.70;;;10.40;99.90;;;;;;5048796;28;20194;-76
2022/09/26 02:30:48;;;;;;;16.90;10.57;;;10.30;99.90;;;;;;5050051;28;20497;-76
2022/09/26 02:33:14;;;;;;;15.77;10.37;;;10.40;99.90;;;;;;5050019;28;20545;-76
2022/09/26 02:35:53;;;;;;;18.20;9.97;;;10.50;99.90;;;;;;5048402;28;20786;-76
2022/09/26 02:38:28;;;;;;;16.53;10.40;;;10.60;99.90;;;;;;5048995;28;20428;-75
2022/09/26 02:41:17;;;;;;;18.57;11.77;;;10.50;99.90;;;;;;5049764;28;20419;-76
2022/09/26 02:43:45;;;;;;;14.80;11.10;;;10.60;99.90;;;;;;5049524;28;20525;-76
2022/09/26 02:46:23;;;;;;;19.43;11.80;;;10.60;99.90;;;;;;5049572;28;20424;-76
2022/09/26 02:49:00;;;;;;;16.43;11.00;;;10.60;99.90;;;;;;5049439;28;20513;-76
2022/09/26 02:51:58;;;;;;;19.70;11.87;;;10.60;99.90;;;;;;5049200;28;21016;-76
2022/09/26 02:54:56;;;;;;;15.53;11.47;;;10.60;99.90;;;;;;5049034;28;20463;-76
2022/09/26 02:57:38;;;;;;;15.70;11.27;;;10.60;99.90;;;;;;5049122;28;20866;-76
2022/09/26 03:00:08;;;;;;;14.40;10.10;;;10.60;99.90;;;;;;5049238;28;20850;-76
2022/09/26 03:03:11;;;;;;;14.07;10.00;;;10.60;99.90;;;;;;5049091;28;20441;-75
2022/09/26 03:05:40;;;;;;;17.63;10.83;;;10.60;99.90;;;;;;5049094;28;20470;-76
2022/09/26 03:08:15;;;;;;;15.20;10.90;;;10.70;99.90;;;;;;5048789;28;20413;-76
2022/09/26 03:10:41;;;;;;;17.50;11.53;;;10.70;99.90;;;;;;5048869;28;20562;-75
2022/09/26 03:13:12;;;;;;;14.50;10.17;;;10.70;99.90;;;;;;5048639;28;20483;-76
2022/09/26 03:15:40;;;;;;;13.33;10.20;;;10.70;99.90;;;;;;5047349;28;20426;-76
2022/09/26 03:18:10;;;;;;;15.80;11.37;;;10.80;99.90;;;;;;5048240;28;20417;-76
2022/09/26 03:20:36;;;;;;;15.30;11.03;;;10.80;99.90;;;;;;5048945;28;20514;-76
2022/09/26 03:23:03;;;;;;;17.50;10.57;;;10.80;99.90;;;;;;5030644;28;20524;-75
2022/09/26 03:25:29;;;;;;;18.60;11.10;;;10.80;99.90;;;;;;5048482;28;20424;-76
2022/09/26 03:27:54;;;;;;;16.20;10.80;;;10.80;99.90;;;;;;5048553;28;20434;-76
2022/09/26 03:30:22;;;;;;;14.53;9.97;;;10.80;99.90;;;;;;5048601;28;20202;-75
2022/09/26 03:32:48;;;;;;;15.83;10.53;;;10.70;99.90;;;;;;5047119;28;20639;-76
2022/09/26 03:35:14;;;;;;;16.77;11.30;;;10.60;99.90;;;;;;5048616;28;20421;-75
2022/09/26 03:37:40;;;;;;;14.30;11.40;;;10.60;99.90;;;;;;5048582;28;20427;-76
2022/09/26 03:40:10;;;;;;;16.20;12.10;;;10.50;99.90;;;;;;5048950;28;20590;-76
2022/09/26 03:42:36;;;;;;;17.13;11.20;;;10.60;99.90;;;;;;5048486;28;20499;-76
2022/09/26 03:45:03;;;;;;;16.13;11.53;;;10.60;99.90;;;;;;5050406;28;20422;-75
2022/09/26 03:47:29;;;;;;;15.87;10.97;;;10.60;99.90;;;;;;5048329;28;20195;-76
2022/09/26 03:49:55;;;;;;;16.73;10.57;;;10.40;99.90;;;;;;5047162;28;20432;-75
2022/09/26 03:52:21;;;;;;;15.70;10.53;;;10.50;99.90;;;;;;5047115;28;20271;-75
2022/09/26 03:54:47;;;;;;;16.40;10.27;;;10.50;99.90;;;;;;5047369;28;20227;-76
2022/09/26 03:57:14;;;;;;;21.27;11.57;;;10.60;99.90;;;;;;5048457;28;21121;-76
2022/09/26 03:59:40;;;;;;;16.63;11.73;;;10.50;99.90;;;;;;5048943;28;20513;-76
2022/09/26 04:02:06;;;;;;;20.20;12.30;;;10.40;99.90;;;;;;5047894;28;20492;-76
2022/09/26 04:04:32;;;;;;;16.03;11.40;;;10.40;99.90;;;;;;5048850;28;20216;-76
2022/09/26 04:06:58;;;;;;;17.80;11.37;;;10.40;99.90;;;;;;5048465;28;20423;-76
2022/09/26 04:09:24;;;;;;;14.70;11.10;;;10.40;99.90;;;;;;5048754;28;20188;-76
2022/09/26 04:11:50;;;;;;;19.77;11.63;;;10.50;99.90;;;;;;5048974;28;20512;-76
2022/09/26 04:14:17;;;;;;;18.33;11.33;;;10.50;99.90;;;;;;5047748;28;20215;-76
2022/09/26 04:16:43;;;;;;;14.40;10.77;;;10.60;99.90;;;;;;5048524;28;20473;-76
2022/09/26 04:19:10;;;;;;;16.90;11.73;;;10.40;99.90;;;;;;5047607;28;20426;-76
2022/09/26 04:21:38;;;;;;;15.83;10.60;;;10.50;99.90;;;;;;5047041;28;20431;-76
2022/09/26 04:24:13;;;;;;;14.83;9.93;;;10.60;99.90;;;;;;5048608;28;20483;-75
2022/09/26 04:26:40;;;;;;;15.07;11.23;;;10.60;99.90;;;;;;5048664;28;20508;-76
2022/09/26 04:29:06;;;;;;;17.70;10.83;;;10.60;99.90;;;;;;5049893;28;21075;-76
2022/09/26 04:31:34;;;;;;;14.20;10.57;;;10.60;99.90;;;;;;5050958;28;20523;-76
2022/09/26 04:34:00;;;;;;;13.37;10.20;;;10.60;99.90;;;;;;5052713;28;20303;-76
2022/09/26 04:36:25;;;;;;;12.17;9.10;;;10.60;99.90;;;;;;5052273;28;20419;-76
2022/09/26 04:38:51;;;;;;;16.07;10.77;;;10.60;99.90;;;;;;5052418;28;20648;-76
2022/09/26 04:41:20;;;;;;;14.87;9.30;;;10.50;99.90;;;;;;5052551;28;20207;-76
2022/09/26 04:43:47;;;;;;;12.93;9.43;;;10.50;99.90;;;;;;5054404;28;20701;-76
2022/09/26 04:46:15;;;;;;;11.70;9.00;;;10.40;99.90;;;;;;5053565;28;20422;-76
2022/09/26 04:48:41;;;;;;;11.20;8.63;;;10.50;99.90;;;;;;5054260;28;20421;-76
2022/09/26 04:51:09;;;;;;;14.10;9.70;;;10.50;99.90;;;;;;5054149;28;20456;-76
2022/09/26 04:53:34;;;;;;;11.53;8.80;;;10.50;99.90;;;;;;5052779;28;21022;-76
2022/09/26 04:56:01;;;;;;;11.47;8.57;;;10.50;99.90;;;;;;5052576;28;20450;-75
2022/09/26 04:58:27;;;;;;;11.70;8.50;;;10.50;99.90;;;;;;5052156;28;20229;-76
2022/09/26 05:00:52;;;;;;;10.07;7.53;;;10.50;99.90;;;;;;5052285;28;20787;-76
2022/09/26 05:03:19;;;;;;;11.77;8.50;;;10.40;99.90;;;;;;5051071;28;20447;-76
2022/09/26 05:05:49;;;;;;;13.47;9.07;;;10.50;99.90;;;;;;5051967;28;20291;-76
2022/09/26 05:08:15;;;;;;;9.87;7.07;;;10.50;99.90;;;;;;5051078;28;20423;-76
2022/09/26 05:10:42;;;;;;;11.53;7.53;;;10.40;99.90;;;;;;5051070;28;20572;-75
2022/09/26 05:13:08;;;;;;;5.50;5.00;;;10.40;99.90;;;;;;5050595;28;20876;-75
2022/09/26 05:15:38;;;;;;;9.60;5.37;;;10.60;99.90;;;;;;5050913;28;20942;-76
2022/09/26 05:18:10;;;;;;;20.43;12.00;;;10.60;99.90;;;;;;5050874;28;20422;-76
2022/09/26 05:20:36;;;;;;;14.70;8.07;;;10.50;99.90;;;;;;5050842;28;20504;-76
2022/09/26 05:23:05;;;;;;;12.97;8.37;;;10.40;99.90;;;;;;5050683;28;20566;-76
2022/09/26 05:28:22;;;;;;;10.67;7.90;;;10.30;99.90;;;;;;5050736;28;20415;-76
2022/09/26 05:30:50;;;;;;;11.83;6.70;;;10.30;99.90;;;;;;5050763;28;20987;-76
2022/09/26 05:33:16;;;;;;;10.60;6.27;;;10.40;99.90;;;;;;5048811;28;20501;-76
2022/09/26 05:35:41;;;;;;;9.53;6.23;;;10.30;99.90;;;;;;5050709;28;20493;-76
2022/09/26 05:38:07;;;;;;;9.63;5.50;;;10.20;99.90;;;;;;5048914;28;20420;-75
2022/09/26 05:43:16;;;;;;;6.83;5.40;;;10.20;99.90;;;;;;5035025;28;20247;-76
2022/09/26 05:45:42;;;;;;;11.80;6.40;;;10.10;99.90;;;;;;5048887;28;21225;-76
2022/09/26 05:48:08;;;;;;;10.00;6.67;;;10.20;99.90;;;;;;5049975;28;20314;-76
2022/09/26 05:50:34;;;;;;;12.90;8.10;;;10.20;99.90;;;;;;5050148;28;20192;-76
2022/09/26 05:53:01;;;;;;;10.10;7.20;;;10.20;99.90;;;;;;5048260;28;20538;-76
2022/09/26 05:55:28;;;;;;;9.50;7.60;;;10.10;99.90;;;;;;5049913;28;20457;-76
2022/09/26 05:57:59;;;;;;;11.20;7.67;;;10.20;99.90;;;;;;5050062;28;21020;-76
2022/09/26 06:00:26;;;;;;;10.10;8.50;;;10.20;99.90;;;;;;5048311;28;20458;-76
2022/09/26 06:02:55;;;;;;;13.07;7.90;;;10.30;99.90;;;;;;5049841;28;20466;-76
2022/09/26 06:05:22;;;;;;;9.53;4.77;;;10.30;99.90;;;;;;5048213;28;20431;-75
2022/09/26 06:07:48;;;;;;;4.80;3.93;;;10.40;99.90;;;;;;5049649;28;20415;-76
2022/09/26 06:10:14;;;;;;;9.60;4.60;;;10.40;99.90;;;;;;5049745;28;20423;-76
2022/09/26 06:12:39;;;;;;;6.20;4.20;;;10.50;99.90;;;;;;5048340;28;20509;-76
2022/09/26 06:15:08;;;;;;;12.37;4.40;;;10.60;99.90;;;;;;5049311;28;20554;-75
2022/09/26 06:17:34;;;;;;;4.80;3.53;;;10.70;99.90;;;;;;5048014;28;20193;-75
2022/09/26 06:20:00;;;;;;;3.63;2.43;;;10.80;99.90;;;;;;5048174;28;20420;-76
2022/09/26 06:22:26;;;;;;;2.90;2.70;;;10.70;99.90;;;;;;5047969;28;20855;-76
2022/09/26 06:24:51;;;;;;;4.13;2.70;;;10.70;99.90;;;;;;5049489;28;20650;-76
2022/09/26 06:27:17;;;;;;;4.23;3.23;;;10.80;99.90;;;;;;5049550;28;20262;-76
2022/09/26 06:29:43;;;;;;;7.90;3.17;;;10.80;99.90;;;;;;5049592;28;20674;-76
2022/09/26 06:32:08;;;;;;;3.50;3.03;;;10.70;99.90;;;;;;5050461;28;20195;-75
2022/09/26 06:34:34;;;;;;;3.40;2.53;;;10.70;99.90;;;;;;5049262;28;20875;-76
2022/09/26 06:36:59;;;;;;;8.93;3.07;;;10.70;99.90;;;;;;5049384;28;20221;-76
2022/09/26 06:39:34;;;;;;;5.53;3.30;;;10.70;99.90;;;;;;5047650;28;20185;-76
2022/09/26 06:42:00;;;;;;;4.43;3.10;;;10.70;99.90;;;;;;5049533;28;20187;-76
2022/09/26 06:44:27;;;;;;;3.00;2.70;;;10.70;99.90;;;;;;5048920;28;20827;-75
2022/09/26 06:46:52;;;;;;;7.60;2.90;;;10.70;99.90;;;;;;5031712;28;20423;-76
2022/09/26 06:49:18;;;;;;;3.47;2.77;;;10.70;99.90;;;;;;5049786;28;20420;-75
2022/09/26 06:51:47;;;;;;;7.97;2.40;;;10.70;99.90;;;;;;5049091;28;20272;-76
2022/09/26 06:54:13;;;;;;;4.90;2.13;;;10.70;99.90;;;;;;5049423;28;20220;-76
2022/09/26 06:56:38;;;;;;;7.87;2.90;;;10.60;99.90;;;;;;5049373;28;20445;-76
2022/09/26 06:59:04;;;;;;;4.30;2.43;;;10.60;99.90;;;;;;5049757;28;20182;-75
2022/09/26 07:01:30;;;;;;;4.03;2.77;;;10.60;99.90;;;;;;5049422;28;20187;-75
2022/09/26 07:03:55;;;;;;;4.77;2.47;;;10.60;99.90;;;;;;5049525;28;20251;-76
2022/09/26 07:06:21;;;;;;;2.20;2.00;;;10.70;99.90;;;;;;5049254;28;20274;-76
2022/09/26 07:08:47;;;;;;;9.80;7.50;;;10.70;99.90;;;;;;5049189;28;20278;-76
2022/09/26 07:11:12;;;;;;;10.93;5.10;;;10.80;99.90;;;;;;5049108;28;20183;-76
2022/09/26 07:13:39;;;;;;;2.50;2.07;;;10.80;99.90;;;;;;5048626;28;20241;-76
2022/09/26 07:16:05;;;;;;;6.87;2.20;;;10.80;99.90;;;;;;5048962;28;20667;-77
2022/09/26 07:18:30;;;;;;;1.90;1.80;;;10.90;99.90;;;;;;5048777;28;20459;-76
2022/09/26 07:20:56;;;;;;;5.50;1.80;;;10.90;99.90;;;;;;5047429;28;20423;-76
2022/09/26 07:23:22;;;;;;;1.93;1.83;;;10.90;99.90;;;;;;5048473;28;20627;-76
2022/09/26 07:25:48;;;;;;;4.77;2.17;;;10.90;99.90;;;;;;5048643;28;20191;-76
2022/09/26 07:28:13;;;;;;;2.60;2.40;;;11.00;99.90;;;;;;5047092;28;20436;-76
2022/09/26 07:30:39;;;;;;;2.20;1.90;;;11.00;99.90;;;;;;5048654;28;20200;-76
2022/09/26 07:33:05;;;;;;;4.63;1.60;;;11.10;99.90;;;;;;5047192;28;20226;-76
2022/09/26 07:35:34;;;;;;;2.60;1.60;;;11.00;99.90;;;;;;5048512;28;20254;-76
2022/09/26 07:38:01;;;;;;;5.47;1.80;;;11.10;99.90;;;;;;5048330;28;20176;-76
2022/09/26 07:40:27;;;;;;;7.30;1.63;;;11.10;99.90;;;;;;5048553;28;20495;-76
2022/09/26 07:42:57;;;;;;;5.40;1.57;;;11.00;99.90;;;;;;5048351;28;20473;-76
2022/09/26 07:50:59;;;;;;;3.50;1.97;;;11.20;99.90;;;;;;5048442;28;20411;-76
2022/09/26 07:53:25;;;;;;;8.63;1.80;;;11.30;99.90;;;;;;5048185;28;20496;-75
2022/09/26 07:56:11;;;;;;;3.50;1.33;;;11.40;99.90;;;;;;5047992;28;20471;-75
2022/09/26 07:58:42;;;;;;;2.60;1.50;;;11.40;99.90;;;;;;5048300;28;20421;-76
2022/09/26 08:01:10;;;;;;;9.63;2.70;;;11.40;99.90;;;;;;5046598;28;20426;-76
2022/09/26 08:03:41;;;;;;;11.30;3.70;;;11.50;99.90;;;;;;5050190;28;20927;-76
2022/09/26 08:06:07;;;;;;;3.03;1.80;;;11.60;99.90;;;;;;5052226;28;20452;-75
2022/09/26 08:08:33;;;;;;;5.13;1.60;;;11.80;99.90;;;;;;5051894;28;20965;-76
2022/09/26 08:11:00;;;;;;;2.03;1.20;;;11.80;99.90;;;;;;5052032;28;20420;-76
2022/09/26 08:13:27;;;;;;;4.67;1.30;;;11.80;99.90;;;;;;5051795;28;20478;-76
2022/09/26 08:15:53;;;;;;;4.50;1.60;;;11.90;99.90;;;;;;5052069;28;21040;-76
2022/09/26 08:18:20;;;;;;;3.27;1.33;;;12.00;99.90;;;;;;5051842;28;20426;-75
2022/09/26 08:20:46;;;;;;;13.73;1.77;;;12.10;99.90;;;;;;5050171;28;20517;-76
2022/09/26 08:23:16;;;;;;;4.90;1.33;;;12.20;99.90;;;;;;5050107;28;20442;-75
2022/09/26 08:25:43;;;;;;;8.50;1.67;;;12.40;99.90;;;;;;5051952;28;20432;-76
2022/09/26 08:28:12;;;;;;;8.00;2.20;;;12.50;99.90;;;;;;5051022;28;20422;-76
2022/09/26 08:30:39;;;;;;;3.63;1.30;;;12.70;99.90;;;;;;5052291;28;20455;-76
2022/09/26 08:33:07;;;;;;;2.80;1.17;;;12.80;99.90;;;;;;5051989;28;20462;-76
2022/09/26 08:35:37;;;;;;;3.27;1.33;;;13.00;99.90;;;;;;5052385;28;20421;-76
2022/09/26 08:38:07;;;;;;;3.00;1.23;;;13.20;99.90;;;;;;5052257;28;20498;-76
2022/09/26 08:40:48;;;;;;;7.70;1.60;;;13.40;99.90;;;;;;5051954;28;20437;-77
2022/09/26 08:43:41;;;;;;;2.53;1.20;;;13.30;99.90;;;;;;5051953;28;20444;-76
2022/09/26 08:46:37;;;;;;;2.73;1.30;;;13.70;99.90;;;;;;5052150;28;20559;-76
2022/09/26 08:49:16;;;;;;;5.90;1.87;;;13.30;99.90;;;;;;5052339;28;20433;-76
2022/09/26 08:51:48;;;;;;;3.63;1.33;;;13.40;99.90;;;;;;5051926;28;20505;-76
2022/09/26 08:54:19;;;;;;;6.00;1.80;;;13.30;99.90;;;;;;5051728;28;20465;-75
2022/09/26 08:56:51;;;;;;;4.30;2.03;;;13.30;99.90;;;;;;5050224;28;20438;-76
2022/09/26 08:59:41;;;;;;;1.40;1.17;;;13.50;99.90;;;;;;5050498;28;20414;-75
2022/09/26 09:02:20;;;;;;;4.60;1.20;;;13.60;99.90;;;;;;5050335;28;20433;-76
2022/09/26 09:05:07;;;;;;;3.43;1.27;;;13.80;99.90;;;;;;5050124;28;20508;-77
2022/09/26 09:07:33;;;;;;;3.20;1.10;;;14.00;99.90;;;;;;5050055;28;20414;-76
2022/09/26 09:10:05;;;;;;;3.83;1.43;;;14.60;99.90;;;;;;5051203;28;20440;-76
2022/09/26 09:13:00;;;;;;;5.83;1.30;;;15.00;99.90;;;;;;5051282;28;20266;-76
2022/09/26 09:16:02;;;;;;;3.00;0.90;;;15.40;99.90;;;;;;5050546;28;20421;-76
2022/09/26 09:19:02;;;;;;;4.43;1.47;;;16.10;99.90;;;;;;5052706;28;20406;-77
2022/09/26 09:21:31;;;;;;;4.73;1.70;;;16.30;99.90;;;;;;5051174;28;20470;-76
2022/09/26 09:24:08;;;;;;;4.00;1.40;;;16.50;99.90;;;;;;5050891;28;20851;-76
2022/09/26 09:26:54;;;;;;;2.70;1.73;;;16.60;99.90;;;;;;5049228;28;20415;-76
2022/09/26 09:29:37;;;;;;;3.33;1.53;;;16.40;99.90;;;;;;5050637;28;20476;-76
2022/09/26 09:32:05;;;;;;;4.40;1.97;;;16.10;99.90;;;;;;5050645;28;20916;-76
2022/09/26 09:34:37;;;;;;;4.83;2.17;;;16.10;99.90;;;;;;5032183;28;20530;-76
2022/09/26 09:37:09;;;;;;;3.87;2.00;;;16.20;99.90;;;;;;5050750;28;20419;-76
2022/09/26 09:39:39;;;;;;;2.63;1.17;;;16.30;99.90;;;;;;5050808;28;20411;-76
2022/09/26 09:42:14;;;;;;;2.90;1.70;;;16.70;99.90;;;;;;5052771;28;20419;-76
2022/09/26 09:44:52;;;;;;;6.80;1.93;;;17.00;99.90;;;;;;5052549;28;20413;-77
2022/09/26 09:47:19;;;;;;;5.60;2.23;;;16.80;99.90;;;;;;5051224;28;20510;-76
2022/09/26 09:49:48;;;;;;;4.90;2.30;;;16.80;99.90;;;;;;5052045;28;20429;-76
2022/09/26 09:52:54;;;;;;;2.40;1.60;;;16.70;99.90;;;;;;5051199;28;20422;-77
2022/09/26 09:55:41;;;;;;;5.23;1.93;;;16.70;99.90;;;;;;5050342;28;20574;-77
2022/09/26 09:58:26;;;;;;;2.33;1.63;;;17.00;99.90;;;;;;5051177;28;20844;-76
2022/09/26 10:01:33;;;;;;;5.50;1.90;;;18.10;99.90;;;;;;5050425;28;20393;-76
2022/09/26 10:04:24;;;;;;;6.53;2.13;;;18.40;99.90;;;;;;5038428;28;20494;-76
2022/09/26 10:06:50;;;;;;;3.20;2.03;;;18.90;99.90;;;;;;5048252;28;20424;-76
2022/09/26 10:09:26;;;;;;;4.97;2.33;;;19.10;96.40;;;;;;5048564;28;20411;-76
2022/09/26 10:11:53;;;;;;;4.83;2.10;;;19.10;96.90;;;;;;5048091;28;20809;-76
2022/09/26 10:14:41;;;;;;;4.47;1.93;;;18.60;93.60;;;;;;5049628;28;20464;-75
2022/09/26 10:17:09;;;;;;;2.83;1.87;;;18.30;96.40;;;;;;5051301;28;20425;-76
2022/09/26 10:19:40;;;;;;;9.97;2.23;;;18.50;99.40;;;;;;5049004;28;20415;-77
2022/09/26 10:22:14;;;;;;;3.80;1.60;;;18.00;97.00;;;;;;5049538;28;20826;-75
2022/09/26 10:24:40;;;;;;;4.70;1.87;;;18.00;99.70;;;;;;5049520;28;20414;-76
2022/09/26 10:27:20;;;;;;;3.20;1.70;;;17.70;98.20;;;;;;5048726;28;20426;-76
2022/09/26 10:29:58;;;;;;;5.40;1.50;;;17.90;96.50;;;;;;5049352;28;20640;-77
2022/09/26 10:32:24;;;;;;;3.70;1.97;;;18.00;97.70;;;;;;5049386;28;20395;-76
2022/09/26 10:35:17;;;;;;;1.53;1.43;;;18.50;94.70;;;;;;5049192;28;21053;-77
2022/09/26 10:37:47;;;;;;;2.30;1.30;;;19.50;94.10;;;;;;5049240;28;20766;-77
2022/09/26 10:40:45;;;;;;;3.37;1.40;;;19.80;95.70;;;;;;5047946;28;20499;-77
2022/09/26 10:43:23;;;;;;;6.53;1.90;;;19.60;94.50;;;;;;5049162;28;20513;-76
2022/09/26 10:45:58;;;;;;;2.53;1.50;;;19.30;95.60;;;;;;5049016;28;20496;-76
2022/09/26 10:48:42;;;;;;;6.20;1.63;;;19.40;94.50;;;;;;5047526;28;20483;-77
2022/09/26 10:51:08;;;;;;;3.10;1.50;;;18.90;91.10;;;;;;5047932;28;21072;-76
2022/09/26 10:53:38;;;;;;;6.50;1.80;;;19.30;91.40;;;;;;5048995;28;20985;-76
2022/09/26 10:56:10;;;;;;;3.47;1.33;;;19.60;91.00;;;;;;5048865;28;20450;-76
2022/09/26 10:58:39;;;;;;;2.37;1.57;;;19.30;92.20;;;;;;5049236;28;20417;-76
2022/09/26 11:01:06;;;;;;;3.47;1.60;;;18.60;92.90;;;;;;5049144;28;20440;-77
2022/09/26 11:03:39;;;;;;;3.20;1.70;;;18.60;94.20;;;;;;5049227;28;20445;-76
2022/09/26 11:06:19;;;;;;;3.27;1.50;;;18.80;95.20;;;;;;5049114;28;20756;-76
2022/09/26 11:08:50;;;;;;;4.33;1.80;;;19.20;94.20;;;;;;5047804;28;20472;-77
2022/09/26 11:11:16;;;;;;;2.20;1.77;;;18.90;93.30;;;;;;5049482;28;20935;-76
2022/09/26 11:14:02;;;;;;;1.90;1.37;;;19.20;93.70;;;;;;5049411;28;20464;-75
2022/09/26 11:16:28;;;;;;;3.47;1.60;;;19.20;91.00;;;;;;5047889;28;20954;-77
2022/09/26 11:19:32;;;;;;;2.07;1.10;;;20.10;92.50;;;;;;5049540;28;20425;-75
2022/09/26 11:22:21;;;;;;;1.93;1.50;;;20.10;86.90;;;;;;5048794;28;20533;-76
2022/09/26 11:24:54;;;;;;;1.80;1.10;;;20.30;81.60;;;;;;5049367;28;20428;-76
2022/09/26 11:27:42;;;;;;;1.37;0.93;;;20.30;87.20;;;;;;5049391;28;20431;-77
2022/09/26 11:30:20;;;;;;;1.63;1.00;;;20.00;85.80;;;;;;5049298;28;20420;-75
2022/09/26 11:32:53;;;;;;;2.47;0.97;;;19.50;86.20;;;;;;5049054;28;20444;-75
2022/09/26 11:35:51;;;;;;;2.90;1.13;;;19.10;90.20;;;;;;5047655;28;20473;-76
2022/09/26 11:38:53;;;;;;;2.50;1.30;;;18.90;90.80;;;;;;5050873;28;20637;-76
2022/09/26 11:41:35;;;;;;;1.43;0.90;;;20.00;91.70;;;;;;5052624;28;20417;-76
2022/09/26 11:44:11;;;;;;;2.93;1.50;;;20.00;81.10;;;;;;5052666;28;20441;-76
2022/09/26 11:46:57;;;;;;;2.80;1.10;;;20.50;85.90;;;;;;5052671;28;20418;-76
2022/09/26 11:49:42;;;;;;;2.97;1.30;;;21.10;85.00;;;;;;5052391;28;20402;-76
2022/09/26 11:52:55;;;;;;;2.20;1.10;;;20.90;81.80;;;;;;5052792;28;20420;-77
2022/09/26 11:55:55;;;;;;;6.90;1.10;;;21.20;82.40;;;;;;5028956;28;20480;-76
2022/09/26 11:58:58;;;;;;;3.37;1.10;;;21.10;80.80;;;;;;5052431;28;20779;-76
2022/09/26 12:01:47;;;;;;;2.13;1.00;;;21.30;80.30;;;;;;5030632;28;21009;-76
2022/09/26 12:04:26;;;;;;;2.03;1.50;;;21.20;78.00;;;;;;5052297;28;21035;-76
2022/09/26 12:07:06;;;;;;;3.60;1.00;;;20.70;76.50;;;;;;5053904;28;20422;-74
2022/09/26 12:09:37;;;;;;;2.20;1.60;;;20.60;78.70;;;;;;5052502;28;20448;-75
2022/09/26 12:12:15;;;;;;;1.73;1.30;;;20.60;81.50;;;;;;5052205;28;20517;-77
2022/09/26 12:14:52;;;;;;;1.10;0.90;;;20.40;77.30;;;;;;5051683;28;20453;-75
2022/09/26 12:17:39;;;;;;;3.17;1.30;;;20.30;81.30;;;;;;5051529;28;20416;-75
2022/09/26 12:20:23;;;;;;;1.20;0.93;;;19.80;82.30;;;;;;5050077;28;20457;-76
2022/09/26 12:23:15;;;;;;;2.60;1.20;;;19.50;82.30;;;;;;5051698;28;20998;-76
2022/09/26 12:26:09;;;;;;;9.57;1.60;;;19.30;83.50;;;;;;5049900;28;20421;-75
2022/09/26 12:28:51;;;;;;;3.30;1.27;;;19.20;86.60;;;;;;5051986;28;20504;-76
2022/09/26 12:31:41;;;;;;;1.80;1.17;;;18.70;88.90;;;;;;5051578;28;20421;-76
2022/09/26 12:34:55;;;;;;;6.97;1.53;;;18.10;91.50;;;;;;5051419;28;20519;-76
2022/09/26 12:37:36;;;;;;;5.60;1.40;;;18.00;94.60;;;;;;5009203;28;20519;-76
2022/09/26 12:40:15;;;;;;;2.23;1.17;;;18.20;94.10;;;;;;5043510;28;20422;-77
2022/09/26 12:42:59;;;;;;;1.40;1.10;;;18.80;92.00;;;;;;5051435;28;20433;-75
2022/09/26 12:46:03;;;;;;;5.70;1.17;;;19.20;90.40;;;;;;5051402;28;20756;-75
2022/09/26 12:48:32;;;;;;;1.80;0.80;;;19.50;88.10;;;;;;5051330;28;20424;-76
2022/09/26 12:51:57;;;;;;;1.73;0.93;;;19.60;88.50;;;;;;5050325;28;20418;-77
2022/09/26 12:54:47;;;;;;;3.63;1.20;;;19.40;87.40;;;;;;5033512;28;20485;-76
2022/09/26 12:57:40;;;;;;;1.50;1.07;;;19.20;89.10;;;;;;5051440;28;20468;-77
2022/09/26 13:00:16;;;;;;;3.07;0.80;;;18.90;89.80;;;;;;5051341;28;20445;-77
2022/09/26 13:03:02;;;;;;;1.60;1.00;;;18.40;84.50;;;;;;5051430;28;21126;-77
2022/09/26 13:05:35;;;;;;;2.77;1.27;;;18.30;91.30;;;;;;5051312;28;20399;-76
2022/09/26 13:08:36;;;;;;;1.53;1.33;;;18.10;91.00;;;;;;5051116;28;20422;-76
2022/09/26 13:11:10;;;;;;;1.30;0.77;;;17.80;90.40;;;;;;5029838;28;20421;-77
2022/09/26 13:14:13;;;;;;;1.37;0.80;;;17.60;90.50;;;;;;5051349;28;20568;-76
2022/09/26 13:16:49;;;;;;;1.27;1.00;;;17.20;90.40;;;;;;5051250;28;20920;-76
2022/09/26 13:19:30;;;;;;;3.00;1.00;;;16.70;95.60;;;;;;5051393;28;20397;-76
2022/09/26 13:22:02;;;;;;;3.33;1.23;;;16.10;99.90;;;;;;5051554;28;20410;-75
2022/09/26 13:24:47;;;;;;;1.87;1.40;;;15.70;99.90;;;;;;5049709;28;20552;-76